Time;durP1;ratioP1;P1;durP2;ratioP2;P2;SDS_P1;SDS_P2;PMS_P1;PMS_P2;Temp;Humidity;BMP_temperature;BMP_pressure;BME280_temperature;BME280_humidity;BME280_pressure;Samples;Min_cycle;Max_cycle;Signal;HPM_P1;HPM_P2
2022/04/30 00:00:08;;;;;;;9.70;7.22;;;;;;;;;;5103984;28;20203;-68
2022/04/30 00:02:36;;;;;;;6.85;6.35;;;;;;;;;;5103841;28;20215;-67
2022/04/30 00:05:03;;;;;;;9.82;6.22;;;;;;;;;;5104181;28;20273;-67
2022/04/30 00:07:29;;;;;;;7.15;6.47;;;;;;;;;;5103694;28;20199;-67
2022/04/30 00:09:55;;;;;;;7.57;6.97;;;;;;;;;;5103982;28;20277;-67
2022/04/30 00:12:23;;;;;;;7.57;6.97;;;;;;;;;;5103838;28;20195;-67
2022/04/30 00:14:50;;;;;;;9.30;6.80;;;;;;;;;;5103776;28;20203;-68
2022/04/30 00:17:16;;;;;;;8.02;7.30;;;;;;;;;;5103897;28;20199;-68
2022/04/30 00:19:44;;;;;;;8.50;7.60;;;;;;;;;;5104006;28;20204;-68
2022/04/30 00:22:10;;;;;;;8.48;7.45;;;;;;;;;;5103580;28;20557;-67
2022/04/30 00:24:38;;;;;;;11.35;7.90;;;;;;;;;;5103572;28;20200;-68
2022/04/30 00:27:05;;;;;;;9.05;7.55;;;;;;;;;;5103289;28;20227;-68
2022/04/30 00:29:31;;;;;;;7.80;7.15;;;;;;;;;;5103715;28;20222;-68
2022/04/30 00:31:58;;;;;;;8.30;7.60;;;;;;;;;;5103332;28;20196;-68
2022/04/30 00:34:25;;;;;;;10.38;7.68;;;;;;;;;;5103578;28;20195;-68
2022/04/30 00:36:52;;;;;;;10.55;8.23;;;;;;;;;;5103268;28;20246;-68
2022/04/30 00:39:19;;;;;;;9.10;8.35;;;;;;;;;;5103405;28;20196;-68
2022/04/30 00:41:46;;;;;;;8.32;7.63;;;;;;;;;;5103134;28;20200;-67
2022/04/30 00:44:17;;;;;;;9.20;7.55;;;;;;;;;;5103394;28;20539;-68
2022/04/30 00:46:44;;;;;;;8.68;7.88;;;;;;;;;;5103003;28;20267;-68
2022/04/30 00:49:10;;;;;;;8.35;7.55;;;;;;;;;;5103435;28;20518;-68
2022/04/30 00:51:37;;;;;;;9.20;8.00;;;;;;;;;;5103321;28;20234;-68
2022/04/30 00:54:05;;;;;;;8.55;7.68;;;;;;;;;;5103155;28;20192;-68
2022/04/30 00:56:33;;;;;;;10.75;8.15;;;;;;;;;;5102874;28;20241;-67
2022/04/30 00:59:02;;;;;;;8.60;7.85;;;;;;;;;;5103162;28;20200;-68
2022/04/30 01:01:31;;;;;;;9.20;8.35;;;;;;;;;;5103098;28;20246;-65
2022/04/30 01:03:58;;;;;;;8.45;7.65;;;;;;;;;;5102751;28;20261;-68
2022/04/30 01:06:29;;;;;;;9.02;8.05;;;;;;;;;;5102722;28;20261;-68
2022/04/30 01:08:56;;;;;;;8.15;7.35;;;;;;;;;;5102957;28;20203;-68
2022/04/30 01:11:24;;;;;;;9.77;8.27;;;;;;;;;;5102948;28;20430;-68
2022/04/30 01:13:50;;;;;;;7.93;7.13;;;;;;;;;;5102718;28;20245;-68
2022/04/30 01:16:17;;;;;;;8.23;7.53;;;;;;;;;;5102453;28;20324;-68
2022/04/30 01:18:44;;;;;;;8.52;7.88;;;;;;;;;;5102726;28;20223;-66
2022/04/30 01:21:11;;;;;;;10.07;7.88;;;;;;;;;;5102529;28;20195;-68
2022/04/30 01:23:41;;;;;;;8.77;7.97;;;;;;;;;;5102849;28;20538;-68
2022/04/30 01:26:09;;;;;;;8.68;7.90;;;;;;;;;;5102712;28;20195;-68
2022/04/30 01:28:35;;;;;;;8.35;7.65;;;;;;;;;;5102889;28;20196;-68
2022/04/30 01:31:01;;;;;;;9.68;8.80;;;;;;;;;;5103067;28;20221;-67
2022/04/30 01:38:59;;;;;;;9.00;8.20;;;;;;;;;;5081384;28;20228;-66
2022/04/30 01:41:26;;;;;;;9.93;8.73;;;;;;;;;;5102519;28;20204;-66
2022/04/30 01:43:53;;;;;;;8.93;7.72;;;;;;;;;;5102518;28;20241;-66
2022/04/30 01:46:19;;;;;;;9.45;8.55;;;;;;;;;;5102416;28;20241;-66
2022/04/30 01:48:46;;;;;;;8.52;7.93;;;;;;;;;;5102348;28;20204;-66
2022/04/30 01:51:13;;;;;;;9.15;8.25;;;;;;;;;;5102532;28;20229;-66
2022/04/30 01:53:39;;;;;;;9.38;8.15;;;;;;;;;;5102470;28;20425;-66
2022/04/30 01:56:07;;;;;;;9.20;7.57;;;;;;;;;;5102135;28;20200;-66
2022/04/30 01:58:33;;;;;;;8.63;7.93;;;;;;;;;;5102429;28;20204;-66
2022/04/30 02:01:00;;;;;;;7.90;7.10;;;;;;;;;;5102251;28;20237;-66
2022/04/30 02:03:27;;;;;;;8.45;7.00;;;;;;;;;;5102314;28;20239;-66
2022/04/30 02:05:54;;;;;;;8.43;7.28;;;;;;;;;;5102323;28;20227;-66
2022/04/30 02:08:20;;;;;;;7.78;7.18;;;;;;;;;;5102243;28;20515;-66
2022/04/30 02:10:47;;;;;;;9.60;7.95;;;;;;;;;;5102027;28;20196;-66
2022/04/30 02:13:16;;;;;;;8.77;8.07;;;;;;;;;;5102414;28;20258;-66
2022/04/30 02:15:44;;;;;;;8.75;7.95;;;;;;;;;;5105528;28;20233;-66
2022/04/30 02:18:12;;;;;;;9.10;8.23;;;;;;;;;;5105742;28;20207;-66
2022/04/30 02:20:42;;;;;;;8.77;7.78;;;;;;;;;;5105917;28;20433;-66
2022/04/30 02:23:09;;;;;;;10.73;9.30;;;;;;;;;;5105807;28;20219;-66
2022/04/30 02:25:36;;;;;;;15.90;8.15;;;;;;;;;;5106302;28;20267;-66
2022/04/30 02:28:04;;;;;;;9.38;8.57;;;;;;;;;;5105539;28;20196;-66
2022/04/30 02:30:35;;;;;;;11.23;9.85;;;;;;;;;;5106027;28;20267;-66
2022/04/30 02:33:04;;;;;;;15.27;10.88;;;;;;;;;;5105967;28;20191;-66
2022/04/30 02:35:33;;;;;;;12.98;11.00;;;;;;;;;;5105836;28;20203;-66
2022/04/30 02:38:00;;;;;;;13.25;11.85;;;;;;;;;;5105481;28;20226;-66
2022/04/30 02:40:29;;;;;;;17.98;12.75;;;;;;;;;;5105859;28;20223;-66
2022/04/30 02:43:01;;;;;;;15.30;12.65;;;;;;;;;;5105724;28;20204;-66
2022/04/30 02:45:28;;;;;;;15.05;12.52;;;;;;;;;;5105721;28;20257;-66
2022/04/30 02:47:56;;;;;;;16.00;12.32;;;;;;;;;;5105290;28;20203;-66
2022/04/30 02:50:23;;;;;;;20.75;14.60;;;;;;;;;;5105736;28;20231;-66
2022/04/30 02:52:50;;;;;;;24.75;17.33;;;;;;;;;;5105411;28;20204;-66
2022/04/30 02:55:16;;;;;;;19.83;15.55;;;;;;;;;;5105367;28;20200;-66
2022/04/30 02:59:53;;;;;;;18.48;15.63;;;;;;;;;;5104974;28;20203;-66
2022/04/30 03:00:31;;;;;;;21.20;13.98;;;;;;;;;;5104916;28;20219;-66
2022/04/30 03:02:58;;;;;;;21.13;14.05;;;;;;;;;;5105498;28;20192;-66
2022/04/30 03:05:25;;;;;;;17.45;13.23;;;;;;;;;;5105367;28;20215;-66
2022/04/30 03:07:52;;;;;;;22.63;15.52;;;;;;;;;;5104876;28;20199;-66
2022/04/30 03:10:18;;;;;;;21.08;13.85;;;;;;;;;;5105232;28;20235;-66
2022/04/30 03:12:45;;;;;;;27.17;17.60;;;;;;;;;;5105018;28;20450;-66
2022/04/30 03:15:11;;;;;;;24.60;18.02;;;;;;;;;;5104849;28;20503;-66
2022/04/30 03:23:03;;;;;;;23.13;15.43;;;;;;;;;;5081711;28;20223;-66
2022/04/30 03:25:29;;;;;;;23.52;16.65;;;;;;;;;;5103930;28;20507;-66
2022/04/30 03:27:56;;;;;;;16.75;14.73;;;;;;;;;;5104161;28;20200;-66
2022/04/30 03:30:23;;;;;;;20.80;14.82;;;;;;;;;;5104748;28;20249;-66
2022/04/30 03:32:49;;;;;;;18.85;13.60;;;;;;;;;;5104715;28;20203;-66
2022/04/30 03:35:15;;;;;;;24.00;17.70;;;;;;;;;;5104659;28;20456;-66
2022/04/30 03:37:43;;;;;;;27.02;16.08;;;;;;;;;;5104894;28;20249;-66
2022/04/30 03:40:10;;;;;;;25.13;17.20;;;;;;;;;;5104513;28;20365;-66
2022/04/30 03:42:37;;;;;;;24.48;18.20;;;;;;;;;;5103675;28;20240;-66
2022/04/30 03:45:03;;;;;;;23.05;16.50;;;;;;;;;;5104523;28;20277;-66
2022/04/30 03:47:30;;;;;;;28.10;16.80;;;;;;;;;;5104035;28;20192;-66
2022/04/30 03:49:56;;;;;;;25.63;17.30;;;;;;;;;;5104323;28;20234;-66
2022/04/30 03:52:22;;;;;;;22.38;17.05;;;;;;;;;;5104353;28;20572;-66
2022/04/30 03:54:50;;;;;;;22.80;17.42;;;;;;;;;;5104113;28;20443;-66
2022/04/30 03:57:16;;;;;;;26.73;17.52;;;;;;;;;;5104309;28;20372;-66
2022/04/30 03:59:42;;;;;;;27.45;18.77;;;;;;;;;;5104374;28;20522;-66
2022/04/30 04:02:09;;;;;;;28.90;18.63;;;;;;;;;;5104233;28;20203;-66
2022/04/30 04:04:35;;;;;;;33.08;20.33;;;;;;;;;;5104208;28;20219;-66
2022/04/30 04:07:02;;;;;;;33.08;20.80;;;;;;;;;;5103750;28;20313;-66
2022/04/30 04:09:28;;;;;;;30.75;19.90;;;;;;;;;;5103860;28;20202;-66
2022/04/30 04:11:55;;;;;;;26.50;19.65;;;;;;;;;;5104167;28;20269;-66
2022/04/30 04:19:49;;;;;;;29.08;20.25;;;;;;;;;;5103585;28;20228;-66
2022/04/30 04:22:15;;;;;;;30.48;19.83;;;;;;;;;;5103857;28;20242;-66
2022/04/30 04:27:29;;;;;;;31.00;22.25;;;;;;;;;;5103459;28;20279;-66
2022/04/30 04:29:55;;;;;;;29.83;21.38;;;;;;;;;;5103695;28;20217;-66
2022/04/30 04:32:22;;;;;;;38.28;24.67;;;;;;;;;;5103364;28;20195;-66
2022/04/30 04:34:48;;;;;;;34.35;23.45;;;;;;;;;;5103500;28;20192;-66
2022/04/30 04:37:15;;;;;;;39.72;24.73;;;;;;;;;;5103221;28;20195;-66
2022/04/30 04:39:42;;;;;;;40.00;24.83;;;;;;;;;;5103582;28;20195;-66
2022/04/30 04:42:08;;;;;;;37.40;24.88;;;;;;;;;;5103305;28;20196;-66
2022/04/30 04:44:35;;;;;;;44.67;25.85;;;;;;;;;;5103277;28;20568;-66
2022/04/30 04:47:02;;;;;;;36.13;23.92;;;;;;;;;;5102994;28;20200;-66
2022/04/30 04:49:28;;;;;;;35.78;24.92;;;;;;;;;;5103338;28;20533;-66
2022/04/30 04:51:55;;;;;;;36.45;23.90;;;;;;;;;;5103123;28;20199;-66
2022/04/30 04:54:21;;;;;;;37.78;25.08;;;;;;;;;;5103205;28;20627;-66
2022/04/30 04:56:47;;;;;;;34.80;24.15;;;;;;;;;;5102944;28;20372;-66
2022/04/30 04:59:14;;;;;;;41.88;24.70;;;;;;;;;;5103186;28;20426;-66
2022/04/30 05:01:41;;;;;;;33.75;22.98;;;;;;;;;;5103128;28;20247;-66
2022/04/30 05:04:08;;;;;;;34.58;23.50;;;;;;;;;;5102851;28;20219;-67
2022/04/30 05:06:34;;;;;;;36.42;24.75;;;;;;;;;;5102826;28;20216;-66
2022/04/30 05:09:01;;;;;;;36.97;24.52;;;;;;;;;;5103353;28;20218;-66
2022/04/30 05:11:27;;;;;;;35.45;22.75;;;;;;;;;;5102922;28;20549;-66
2022/04/30 05:13:53;;;;;;;37.55;24.77;;;;;;;;;;5102889;28;20479;-66
2022/04/30 05:16:19;;;;;;;39.50;23.55;;;;;;;;;;5102674;28;20248;-66
2022/04/30 05:18:47;;;;;;;38.65;25.23;;;;;;;;;;5103121;28;20234;-66
2022/04/30 05:21:13;;;;;;;40.03;25.88;;;;;;;;;;5102873;28;20200;-67
2022/04/30 05:23:39;;;;;;;33.03;24.67;;;;;;;;;;5102731;28;20199;-66
2022/04/30 05:26:06;;;;;;;36.88;25.23;;;;;;;;;;5102797;28;20262;-66
2022/04/30 05:28:32;;;;;;;37.80;25.58;;;;;;;;;;5102664;28;20203;-66
2022/04/30 05:30:58;;;;;;;43.67;25.67;;;;;;;;;;5103051;28;20199;-66
2022/04/30 05:33:24;;;;;;;33.05;23.05;;;;;;;;;;5102737;28;20195;-66
2022/04/30 05:35:53;;;;;;;40.15;25.13;;;;;;;;;;5102716;28;20192;-66
2022/04/30 05:38:20;;;;;;;38.97;25.90;;;;;;;;;;5102408;28;20196;-66
2022/04/30 05:40:46;;;;;;;37.53;25.23;;;;;;;;;;5102643;28;20504;-67
2022/04/30 05:43:13;;;;;;;34.65;23.70;;;;;;;;;;5102495;28;20557;-66
2022/04/30 05:45:39;;;;;;;37.20;25.58;;;;;;;;;;5102439;28;20220;-66
2022/04/30 05:48:06;;;;;;;36.92;24.63;;;;;;;;;;5102391;28;20372;-67
2022/04/30 05:50:33;;;;;;;31.60;23.27;;;;;;;;;;5106007;28;20196;-66
2022/04/30 05:53:01;;;;;;;34.28;23.98;;;;;;;;;;5106677;28;20249;-67
2022/04/30 05:55:27;;;;;;;30.65;23.13;;;;;;;;;;5106591;28;20225;-67
2022/04/30 05:57:53;;;;;;;37.83;23.92;;;;;;;;;;5106439;28;20204;-66
2022/04/30 06:00:20;;;;;;;32.78;23.65;;;;;;;;;;5106634;28;20221;-66
2022/04/30 06:02:48;;;;;;;32.33;23.70;;;;;;;;;;5106834;28;20249;-66
2022/04/30 06:05:15;;;;;;;31.90;24.05;;;;;;;;;;5106382;28;20324;-66
2022/04/30 06:07:41;;;;;;;33.00;24.05;;;;;;;;;;5106104;28;20203;-66
2022/04/30 06:10:09;;;;;;;39.50;25.25;;;;;;;;;;5106417;28;20499;-66
2022/04/30 06:12:35;;;;;;;34.63;23.98;;;;;;;;;;5106341;28;20196;-66
2022/04/30 06:15:02;;;;;;;33.22;24.10;;;;;;;;;;5106516;28;20530;-66
2022/04/30 06:17:28;;;;;;;33.17;23.80;;;;;;;;;;5106139;28;20200;-66
2022/04/30 06:19:54;;;;;;;32.90;24.35;;;;;;;;;;5106324;28;20196;-66
2022/04/30 06:22:20;;;;;;;35.60;26.05;;;;;;;;;;5106055;28;20200;-68
2022/04/30 06:24:47;;;;;;;38.17;26.13;;;;;;;;;;5105908;28;20216;-68
2022/04/30 06:27:14;;;;;;;39.00;25.23;;;;;;;;;;5106047;28;20262;-68
2022/04/30 06:29:41;;;;;;;37.10;24.98;;;;;;;;;;5105957;28;20385;-68
2022/04/30 06:32:08;;;;;;;38.90;25.13;;;;;;;;;;5106120;28;20256;-68
2022/04/30 06:34:34;;;;;;;35.08;25.88;;;;;;;;;;5106059;28;20515;-68
2022/04/30 06:37:00;;;;;;;35.97;25.83;;;;;;;;;;5105617;28;20495;-68
2022/04/30 06:39:26;;;;;;;34.28;24.80;;;;;;;;;;5105774;28;20657;-68
2022/04/30 06:41:53;;;;;;;34.15;25.70;;;;;;;;;;5105870;28;20514;-68
2022/04/30 06:44:21;;;;;;;34.55;25.25;;;;;;;;;;5106126;28;20211;-68
2022/04/30 06:46:47;;;;;;;38.38;25.45;;;;;;;;;;5105625;28;20203;-69
2022/04/30 06:49:13;;;;;;;33.00;24.60;;;;;;;;;;5105664;28;20267;-68
2022/04/30 06:51:39;;;;;;;32.90;24.58;;;;;;;;;;5105579;28;20188;-68
2022/04/30 06:57:10;;;;;;;34.95;25.10;;;;;;;;;;5105375;28;20219;-68
2022/04/30 06:59:40;;;;;;;37.80;25.20;;;;;;;;;;5105920;28;20187;-67
2022/04/30 07:02:09;;;;;;;33.88;24.58;;;;;;;;;;5105096;28;20204;-68
2022/04/30 07:04:36;;;;;;;33.92;24.75;;;;;;;;;;5105395;28;20227;-70
2022/04/30 07:07:03;;;;;;;35.40;24.92;;;;;;;;;;5105341;28;20249;-70
2022/04/30 07:09:32;;;;;;;31.60;24.05;;;;;;;;;;5105551;28;20507;-70
2022/04/30 07:11:58;;;;;;;31.88;24.42;;;;;;;;;;5105268;28;20195;-70
2022/04/30 07:14:24;;;;;;;32.10;23.33;;;;;;;;;;5105034;28;20192;-70
2022/04/30 07:16:52;;;;;;;33.58;25.30;;;;;;;;;;5105963;28;20569;-71
2022/04/30 07:19:18;;;;;;;33.00;24.02;;;;;;;;;;5108913;28;20192;-70
2022/04/30 07:21:45;;;;;;;32.47;24.35;;;;;;;;;;5105061;28;20196;-70
2022/04/30 07:24:11;;;;;;;34.15;23.85;;;;;;;;;;5104789;28;20241;-70
2022/04/30 07:26:37;;;;;;;35.67;24.67;;;;;;;;;;5104731;28;20196;-70
2022/04/30 07:29:03;;;;;;;35.97;24.63;;;;;;;;;;5105029;28;20200;-70
2022/04/30 07:31:30;;;;;;;34.72;25.27;;;;;;;;;;5104691;28;20218;-70
2022/04/30 07:33:57;;;;;;;36.03;24.25;;;;;;;;;;5104972;28;20196;-70
2022/04/30 07:36:26;;;;;;;35.63;24.35;;;;;;;;;;5104400;28;20199;-70
2022/04/30 07:38:52;;;;;;;32.75;25.10;;;;;;;;;;5104735;28;20256;-70
2022/04/30 07:41:19;;;;;;;36.80;24.30;;;;;;;;;;5104673;28;20199;-70
2022/04/30 07:43:45;;;;;;;31.33;23.33;;;;;;;;;;5104583;28;20196;-70
2022/04/30 07:46:11;;;;;;;32.22;24.33;;;;;;;;;;5104459;28;20254;-70
2022/04/30 07:48:37;;;;;;;37.25;25.00;;;;;;;;;;5104352;28;20203;-70
2022/04/30 07:51:13;;;;;;;28.60;22.63;;;;;;;;;;5104246;28;20221;-70
2022/04/30 07:53:39;;;;;;;25.08;21.02;;;;;;;;;;5104365;28;20195;-70
2022/04/30 07:56:06;;;;;;;34.65;23.13;;;;;;;;;;5104131;28;20229;-70
2022/04/30 07:58:32;;;;;;;29.27;22.48;;;;;;;;;;5104030;28;20227;-70
2022/04/30 08:00:59;;;;;;;33.15;23.50;;;;;;;;;;5104268;28;20211;-70
2022/04/30 08:03:25;;;;;;;30.60;23.17;;;;;;;;;;5104217;28;20223;-70
2022/04/30 08:05:51;;;;;;;26.27;21.73;;;;;;;;;;5103934;28;20231;-70
2022/04/30 08:08:19;;;;;;;27.35;22.13;;;;;;;;;;5103838;28;20196;-70
2022/04/30 08:10:46;;;;;;;28.55;22.98;;;;;;;;;;5104283;28;20490;-70
2022/04/30 08:13:12;;;;;;;26.83;21.92;;;;;;;;;;5103135;28;20218;-70
2022/04/30 08:15:43;;;;;;;26.67;22.52;;;;;;;;;;5103989;28;20191;-70
2022/04/30 08:18:09;;;;;;;30.15;22.08;;;;;;;;;;5103886;28;20233;-70
2022/04/30 08:20:37;;;;;;;30.00;21.83;;;;;;;;;;5103859;28;20317;-70
2022/04/30 08:23:04;;;;;;;28.20;21.85;;;;;;;;;;5103702;28;20199;-70
2022/04/30 08:25:31;;;;;;;27.00;21.95;;;;;;;;;;5103603;28;20215;-70
2022/04/30 08:27:58;;;;;;;25.20;21.42;;;;;;;;;;5103767;28;20199;-70
2022/04/30 08:30:24;;;;;;;24.58;20.85;;;;;;;;;;5103745;28;20364;-70
2022/04/30 08:32:50;;;;;;;28.00;21.13;;;;;;;;;;5103128;28;20210;-70
2022/04/30 08:35:16;;;;;;;27.30;22.08;;;;;;;;;;5103123;28;20229;-70
2022/04/30 08:37:43;;;;;;;28.25;21.02;;;;;;;;;;5103423;28;20196;-70
2022/04/30 08:40:09;;;;;;;25.30;21.45;;;;;;;;;;5102973;28;20196;-70
2022/04/30 08:42:37;;;;;;;27.20;21.45;;;;;;;;;;5102892;28;20223;-70
2022/04/30 08:45:04;;;;;;;24.80;20.98;;;;;;;;;;5103336;28;20257;-70
2022/04/30 08:47:31;;;;;;;26.67;21.33;;;;;;;;;;5102692;28;20318;-69
2022/04/30 08:49:58;;;;;;;28.60;20.88;;;;;;;;;;5103128;28;20495;-70
2022/04/30 08:52:24;;;;;;;24.80;20.35;;;;;;;;;;5102528;28;20199;-69
2022/04/30 08:54:50;;;;;;;28.27;20.15;;;;;;;;;;5102680;28;20480;-69
2022/04/30 08:57:16;;;;;;;26.38;20.38;;;;;;;;;;5102543;28;20195;-70
2022/04/30 08:59:45;;;;;;;22.92;19.60;;;;;;;;;;5102861;28;20561;-69
2022/04/30 09:02:12;;;;;;;22.48;17.88;;;;;;;;;;5102544;28;20212;-69
2022/04/30 09:04:43;;;;;;;21.65;18.67;;;;;;;;;;5102551;28;20219;-70
2022/04/30 09:07:12;;;;;;;24.35;18.77;;;;;;;;;;5102361;28;20262;-70
2022/04/30 09:09:39;;;;;;;21.08;17.52;;;;;;;;;;5102641;28;20472;-70
2022/04/30 09:12:06;;;;;;;20.58;17.67;;;;;;;;;;5102644;28;20195;-70
2022/04/30 09:14:32;;;;;;;23.45;16.60;;;;;;;;;;5102571;28;20432;-69
2022/04/30 09:17:04;;;;;;;21.23;18.85;;;;;;;;;;5102342;28;20422;-70
2022/04/30 09:19:31;;;;;;;25.05;19.15;;;;;;;;;;5102305;28;20231;-70
2022/04/30 09:21:57;;;;;;;23.08;17.92;;;;;;;;;;5102092;28;20241;-70
2022/04/30 09:24:23;;;;;;;23.63;17.95;;;;;;;;;;5101613;28;20400;-69
2022/04/30 09:26:52;;;;;;;21.77;17.63;;;;;;;;;;5102135;28;20452;-69
2022/04/30 09:29:19;;;;;;;22.13;17.50;;;;;;;;;;5102297;28;20241;-69
2022/04/30 09:31:48;;;;;;;19.92;17.05;;;;;;;;;;5102195;28;20231;-69
2022/04/30 09:39:41;;;;;;;18.85;15.98;;;;;;;;;;5102029;28;20518;-69
2022/04/30 09:42:08;;;;;;;21.08;16.05;;;;;;;;;;5102288;28;20492;-69
2022/04/30 09:44:36;;;;;;;19.95;15.65;;;;;;;;;;5102052;28;20199;-69
2022/04/30 09:47:03;;;;;;;18.10;16.15;;;;;;;;;;5101746;28;20227;-69
2022/04/30 09:55:00;;;;;;;16.45;13.75;;;;;;;;;;5102223;28;20521;-70
2022/04/30 09:57:27;;;;;;;15.55;14.00;;;;;;;;;;5101686;28;20199;-69
2022/04/30 09:59:56;;;;;;;14.23;12.82;;;;;;;;;;5101881;28;20419;-69
2022/04/30 10:02:23;;;;;;;14.82;13.32;;;;;;;;;;5101672;28;20242;-69
2022/04/30 10:04:51;;;;;;;15.70;13.85;;;;;;;;;;5101936;28;20195;-69
2022/04/30 10:07:20;;;;;;;15.93;13.98;;;;;;;;;;5102400;28;20219;-70
2022/04/30 10:09:50;;;;;;;17.25;15.40;;;;;;;;;;5102303;28;20223;-70
2022/04/30 10:12:18;;;;;;;15.52;13.73;;;;;;;;;;5102744;28;20514;-70
2022/04/30 10:14:47;;;;;;;13.98;12.57;;;;;;;;;;5102808;28;20203;-70
2022/04/30 10:17:16;;;;;;;14.20;12.73;;;;;;;;;;5102481;28;20207;-70
2022/04/30 10:19:43;;;;;;;15.38;11.50;;;;;;;;;;5102362;28;20262;-70
2022/04/30 10:22:12;;;;;;;11.45;10.30;;;;;;;;;;5102305;28;20196;-70
2022/04/30 10:24:42;;;;;;;10.82;9.82;;;;;;;;;;5102757;28;20537;-70
2022/04/30 10:27:08;;;;;;;9.88;8.88;;;;;;;;;;5102023;28;20587;-70
2022/04/30 10:29:57;;;;;;;8.95;8.15;;;;;;;;;;5102204;28;20241;-70
2022/04/30 10:32:27;;;;;;;8.35;7.60;;;;;;;;;;5102235;28;20223;-70
2022/04/30 10:37:47;;;;;;;9.43;8.63;;;;;;;;;;5104596;28;20223;-70
2022/04/30 10:40:13;;;;;;;9.95;9.07;;;;;;;;;;5105831;28;20413;-70
2022/04/30 10:42:40;;;;;;;9.65;8.77;;;;;;;;;;5105553;28;20192;-70
2022/04/30 10:45:09;;;;;;;9.77;8.80;;;;;;;;;;5105604;28;20275;-70
2022/04/30 10:47:35;;;;;;;10.40;8.70;;;;;;;;;;5105617;28;20203;-70
2022/04/30 10:50:02;;;;;;;9.80;8.40;;;;;;;;;;5106399;28;20233;-70
2022/04/30 10:52:28;;;;;;;10.32;9.32;;;;;;;;;;5106187;28;20196;-69
2022/04/30 10:54:58;;;;;;;9.82;8.32;;;;;;;;;;5105705;28;20199;-70
2022/04/30 10:57:24;;;;;;;9.35;8.60;;;;;;;;;;5105540;28;20200;-70
2022/04/30 10:59:58;;;;;;;10.15;9.25;;;;;;;;;;5105605;28;20200;-70
2022/04/30 11:02:29;;;;;;;9.07;8.32;;;;;;;;;;5105374;28;20204;-70
2022/04/30 11:04:55;;;;;;;8.95;8.13;;;;;;;;;;5105615;28;20306;-70
2022/04/30 11:07:22;;;;;;;8.02;7.43;;;;;;;;;;5105269;28;20215;-70
2022/04/30 11:09:48;;;;;;;8.25;7.05;;;;;;;;;;5105182;28;20207;-70
2022/04/30 11:12:15;;;;;;;8.55;7.85;;;;;;;;;;5105291;28;20196;-70
2022/04/30 11:14:43;;;;;;;7.70;7.10;;;;;;;;;;5105964;28;20551;-70
2022/04/30 11:17:09;;;;;;;7.43;6.82;;;;;;;;;;5105418;28;20546;-70
2022/04/30 11:19:40;;;;;;;7.80;7.20;;;;;;;;;;5105555;28;20328;-68
2022/04/30 11:22:08;;;;;;;7.35;6.82;;;;;;;;;;5105361;28;20199;-68
2022/04/30 11:24:34;;;;;;;7.47;6.85;;;;;;;;;;5105090;28;20203;-68
2022/04/30 11:27:03;;;;;;;7.00;6.40;;;;;;;;;;5104533;28;20228;-70
2022/04/30 11:29:30;;;;;;;7.47;6.95;;;;;;;;;;5105026;28;20242;-68
2022/04/30 11:31:57;;;;;;;6.60;6.10;;;;;;;;;;5104987;28;20207;-68
2022/04/30 11:34:24;;;;;;;4.90;4.70;;;;;;;;;;5104807;28;20395;-70
2022/04/30 11:36:52;;;;;;;3.63;3.45;;;;;;;;;;5104807;28;20413;-69
2022/04/30 11:39:19;;;;;;;3.70;3.50;;;;;;;;;;5104444;28;20196;-70
2022/04/30 11:41:46;;;;;;;3.42;3.25;;;;;;;;;;5104712;28;20196;-68
2022/04/30 11:44:13;;;;;;;2.58;2.58;;;;;;;;;;5104531;28;20195;-70
2022/04/30 11:46:41;;;;;;;2.20;2.10;;;;;;;;;;5103330;28;20426;-68
2022/04/30 11:49:08;;;;;;;2.50;2.40;;;;;;;;;;5104285;28;20495;-69
2022/04/30 11:51:35;;;;;;;3.38;2.42;;;;;;;;;;5104317;28;20203;-68
2022/04/30 11:54:02;;;;;;;2.97;2.88;;;;;;;;;;5104104;28;20436;-69
2022/04/30 11:56:28;;;;;;;2.20;2.15;;;;;;;;;;5104129;28;20527;-68
2022/04/30 11:58:55;;;;;;;2.22;2.22;;;;;;;;;;5104204;28;20432;-69
2022/04/30 12:01:22;;;;;;;2.55;2.42;;;;;;;;;;5103944;28;20203;-68
2022/04/30 12:03:54;;;;;;;2.80;2.70;;;;;;;;;;5104217;28;20196;-69
2022/04/30 12:06:20;;;;;;;3.22;3.13;;;;;;;;;;5103715;28;20216;-69
2022/04/30 12:08:47;;;;;;;2.83;2.72;;;;;;;;;;5103823;28;20200;-68
2022/04/30 12:11:13;;;;;;;2.53;2.42;;;;;;;;;;5104014;28;20196;-69
2022/04/30 12:13:40;;;;;;;2.70;2.60;;;;;;;;;;5103975;28;20207;-69
2022/04/30 12:16:07;;;;;;;2.30;2.30;;;;;;;;;;5103743;28;20192;-69
2022/04/30 12:26:53;;;;;;;3.70;3.50;;;;;;;;;;5103343;28;20394;-69
2022/04/30 12:29:19;;;;;;;3.50;3.30;;;;;;;;;;5103644;28;20195;-70
2022/04/30 12:31:46;;;;;;;3.08;2.97;;;;;;;;;;5103832;28;20203;-70
2022/04/30 12:34:17;;;;;;;3.28;3.08;;;;;;;;;;5103651;28;20204;-69
2022/04/30 12:36:51;;;;;;;3.08;2.90;;;;;;;;;;5103354;28;20496;-70
2022/04/30 12:39:17;;;;;;;3.40;3.15;;;;;;;;;;5103458;28;20414;-69
2022/04/30 12:41:44;;;;;;;3.60;3.50;;;;;;;;;;5103234;28;20241;-69
2022/04/30 12:44:10;;;;;;;3.10;3.00;;;;;;;;;;5103316;28;20202;-70
2022/04/30 12:46:36;;;;;;;3.17;3.08;;;;;;;;;;5103008;28;20223;-70
2022/04/30 12:49:03;;;;;;;2.65;2.40;;;;;;;;;;5103101;28;20271;-70
2022/04/30 12:51:29;;;;;;;2.67;2.60;;;;;;;;;;5103157;28;20234;-70
2022/04/30 12:53:56;;;;;;;2.78;2.70;;;;;;;;;;5103046;28;20221;-70
2022/04/30 12:56:23;;;;;;;2.80;2.70;;;;;;;;;;5102810;28;20395;-70
2022/04/30 12:58:49;;;;;;;3.03;2.92;;;;;;;;;;5103257;28;20318;-69
2022/04/30 13:01:15;;;;;;;3.20;3.10;;;;;;;;;;5103116;28;20208;-70
2022/04/30 13:03:42;;;;;;;3.17;3.08;;;;;;;;;;5103076;28;20203;-70
2022/04/30 13:06:08;;;;;;;3.58;3.47;;;;;;;;;;5102773;28;20219;-69
2022/04/30 13:14:04;;;;;;;3.30;3.20;;;;;;;;;;5102876;28;20370;-69
2022/04/30 13:16:30;;;;;;;2.75;2.65;;;;;;;;;;5102957;28;20191;-69
2022/04/30 13:18:58;;;;;;;2.65;2.55;;;;;;;;;;5102966;28;20217;-69
2022/04/30 13:21:25;;;;;;;2.53;2.50;;;;;;;;;;5102782;28;20202;-69
2022/04/30 13:23:51;;;;;;;2.72;2.72;;;;;;;;;;5102837;28;20202;-69
2022/04/30 13:26:20;;;;;;;3.00;2.90;;;;;;;;;;5102625;28;20552;-69
2022/04/30 13:28:48;;;;;;;5.20;3.55;;;;;;;;;;5102960;28;20196;-69
2022/04/30 13:31:14;;;;;;;3.97;3.78;;;;;;;;;;5102813;28;20221;-69
2022/04/30 13:33:40;;;;;;;5.68;5.25;;;;;;;;;;5102470;28;20195;-70
2022/04/30 13:36:07;;;;;;;6.00;5.57;;;;;;;;;;5102319;28;20204;-69
2022/04/30 13:38:34;;;;;;;5.38;5.07;;;;;;;;;;5102622;28;20195;-69
2022/04/30 13:41:01;;;;;;;5.25;4.75;;;;;;;;;;5102740;28;20419;-69
2022/04/30 13:43:27;;;;;;;6.10;5.60;;;;;;;;;;5102097;28;20235;-69
2022/04/30 13:45:55;;;;;;;6.40;5.18;;;;;;;;;;5102401;28;20207;-69
2022/04/30 13:48:21;;;;;;;5.75;5.45;;;;;;;;;;5102077;28;20530;-70
2022/04/30 13:50:48;;;;;;;6.50;6.03;;;;;;;;;;5101821;28;20278;-69
2022/04/30 13:53:14;;;;;;;6.57;6.10;;;;;;;;;;5101999;28;20202;-69
2022/04/30 13:55:41;;;;;;;6.25;5.75;;;;;;;;;;5101872;28;20233;-69
2022/04/30 13:58:08;;;;;;;5.90;5.50;;;;;;;;;;5101648;28;20259;-69
2022/04/30 14:00:35;;;;;;;7.82;7.13;;;;;;;;;;5101815;28;20195;-69
2022/04/30 14:03:02;;;;;;;8.00;7.40;;;;;;;;;;5101790;28;20203;-69
2022/04/30 14:05:29;;;;;;;7.95;7.38;;;;;;;;;;5101587;28;20230;-69
2022/04/30 14:07:55;;;;;;;8.75;7.90;;;;;;;;;;5101490;28;20286;-69
2022/04/30 14:10:22;;;;;;;9.27;8.48;;;;;;;;;;5102742;28;20313;-69
2022/04/30 14:12:48;;;;;;;10.50;9.52;;;;;;;;;;5105652;28;20335;-69
2022/04/30 14:15:14;;;;;;;9.10;8.40;;;;;;;;;;5105677;28;20425;-70
2022/04/30 14:20:25;;;;;;;10.35;9.25;;;;;;;;;;5105597;28;20222;-69
2022/04/30 14:22:51;;;;;;;10.57;9.68;;;;;;;;;;5105631;28;20268;-69
2022/04/30 14:25:17;;;;;;;12.93;10.05;;;;;;;;;;5105395;28;20234;-70
2022/04/30 14:27:47;;;;;;;10.57;9.57;;;;;;;;;;5104970;28;20257;-69
2022/04/30 14:30:14;;;;;;;11.15;10.13;;;;;;;;;;5105133;28;20244;-70
2022/04/30 14:32:41;;;;;;;12.50;10.45;;;;;;;;;;5105369;28;20204;-69
2022/04/30 14:35:08;;;;;;;11.75;10.05;;;;;;;;;;5105511;28;20203;-69
2022/04/30 14:37:36;;;;;;;10.60;9.68;;;;;;;;;;5105161;28;20275;-69
2022/04/30 14:40:02;;;;;;;11.65;10.55;;;;;;;;;;5105313;28;20196;-69
2022/04/30 14:42:29;;;;;;;11.13;10.07;;;;;;;;;;5105051;28;20202;-69
2022/04/30 14:44:55;;;;;;;10.85;9.75;;;;;;;;;;5105039;28;20207;-69
2022/04/30 14:47:22;;;;;;;9.10;8.23;;;;;;;;;;5105061;28;20219;-69
2022/04/30 14:49:49;;;;;;;9.10;8.30;;;;;;;;;;5105011;28;20200;-69
2022/04/30 14:52:15;;;;;;;9.70;8.75;;;;;;;;;;5104766;28;20239;-69
2022/04/30 14:54:43;;;;;;;10.77;8.88;;;;;;;;;;5104726;28;20207;-70
2022/04/30 14:57:09;;;;;;;8.88;7.97;;;;;;;;;;5104356;28;20429;-69
2022/04/30 14:59:35;;;;;;;8.45;7.75;;;;;;;;;;5104785;28;20206;-69
2022/04/30 15:02:02;;;;;;;7.80;7.18;;;;;;;;;;5104610;28;20204;-69
2022/04/30 15:04:28;;;;;;;8.13;7.43;;;;;;;;;;5104893;28;20437;-69
2022/04/30 15:06:58;;;;;;;8.18;7.47;;;;;;;;;;5104437;28;20268;-69
2022/04/30 15:09:24;;;;;;;8.45;7.63;;;;;;;;;;5104848;28;20203;-69
2022/04/30 15:11:53;;;;;;;8.38;7.63;;;;;;;;;;5105346;28;20196;-69
2022/04/30 15:14:19;;;;;;;8.07;7.28;;;;;;;;;;5105497;28;20499;-69
2022/04/30 15:16:45;;;;;;;7.63;6.97;;;;;;;;;;5104753;28;20195;-69
2022/04/30 15:19:11;;;;;;;6.70;6.20;;;;;;;;;;5105250;28;20364;-69